createdAt,value
2023-01-15T00:01:36.903Z,8.07
2023-01-15T00:04:21.915Z,6.13
2023-01-15T00:07:07.394Z,7.23
2023-01-15T00:09:52.909Z,6.23
2023-01-15T00:12:38.290Z,6.93
2023-01-15T00:15:23.593Z,6.50
2023-01-15T00:18:08.793Z,5.87
2023-01-15T00:21:00.009Z,5.27
2023-01-15T00:24:03.612Z,4.90
2023-01-15T00:27:14.997Z,4.87
2023-01-15T00:30:00.372Z,5.00
2023-01-15T00:32:45.848Z,6.57
2023-01-15T00:35:31.291Z,5.30
2023-01-15T00:38:16.588Z,6.70
2023-01-15T00:41:02.822Z,5.77
2023-01-15T00:43:48.076Z,5.00
2023-01-15T00:46:33.360Z,5.20
2023-01-15T00:49:18.796Z,5.53
2023-01-15T00:52:04.747Z,4.87
2023-01-15T00:54:50.078Z,5.10
2023-01-15T00:57:35.356Z,5.63
2023-01-15T01:00:20.993Z,5.10
2023-01-15T01:03:06.557Z,4.43
2023-01-15T01:05:51.768Z,6.20
2023-01-15T01:08:37.047Z,5.17
2023-01-15T01:11:26.223Z,5.27
2023-01-15T01:14:13.065Z,4.73
2023-01-15T01:16:59.410Z,5.87
2023-01-15T01:19:45.808Z,4.87
2023-01-15T01:22:33.487Z,4.47
2023-01-15T01:25:21.088Z,5.00
2023-01-15T01:28:06.562Z,5.20
2023-01-15T01:30:52.147Z,3.97
2023-01-15T01:33:37.364Z,4.50
2023-01-15T01:36:31.585Z,4.63
2023-01-15T01:39:19.421Z,4.33
2023-01-15T01:42:11.232Z,4.30
2023-01-15T01:45:25.083Z,5.27
2023-01-15T01:48:10.983Z,4.13
2023-01-15T01:50:59.445Z,4.27
2023-01-15T01:53:45.229Z,4.30
2023-01-15T01:56:34.699Z,3.93
2023-01-15T01:59:24.162Z,3.77
2023-01-15T02:02:09.506Z,3.83
2023-01-15T02:04:54.944Z,4.13
2023-01-15T02:07:40.983Z,6.13
2023-01-15T02:10:27.066Z,5.20
2023-01-15T02:13:32.206Z,3.33
2023-01-15T02:16:34.484Z,3.57
2023-01-15T02:19:45.052Z,5.90
2023-01-15T02:22:53.417Z,3.20
2023-01-15T02:25:58.197Z,4.67
2023-01-15T02:28:49.186Z,3.97
2023-01-15T02:31:38.684Z,3.60
2023-01-15T02:34:32.177Z,3.37
2023-01-15T02:37:25.865Z,4.33
2023-01-15T02:40:13.418Z,3.95
2023-01-15T02:43:00.095Z,3.57
2023-01-15T02:45:52.799Z,5.80
2023-01-15T02:48:41.587Z,4.13
2023-01-15T02:51:37.024Z,3.63
2023-01-15T02:54:25.277Z,3.73
2023-01-15T02:57:13.657Z,3.80
2023-01-15T03:00:03.745Z,3.97
2023-01-15T03:02:59.405Z,2.60
2023-01-15T03:06:02.244Z,3.90
2023-01-15T03:08:48.020Z,2.40
2023-01-15T03:11:39.131Z,6.00
2023-01-15T03:14:40.456Z,3.03
2023-01-15T03:17:56.072Z,3.43
2023-01-15T03:20:49.906Z,3.57
2023-01-15T03:23:43.219Z,2.83
2023-01-15T03:26:28.977Z,3.90
2023-01-15T03:29:15.607Z,2.83
2023-01-15T03:32:01.932Z,3.33
2023-01-15T03:34:51.321Z,4.13
2023-01-15T03:37:38.511Z,3.03
2023-01-15T03:40:24.019Z,3.20
2023-01-15T03:43:34.043Z,2.30
2023-01-15T03:46:19.874Z,4.23
2023-01-15T03:49:19.296Z,3.20
2023-01-15T03:52:25.154Z,4.67
2023-01-15T03:55:30.657Z,4.40
2023-01-15T03:58:35.463Z,3.63
2023-01-15T04:01:32.102Z,4.37
2023-01-15T04:04:18.494Z,4.93
2023-01-15T04:07:04.314Z,4.20
2023-01-15T04:09:52.136Z,4.23
2023-01-15T04:12:37.557Z,4.87
2023-01-15T04:15:27.438Z,3.83
2023-01-15T04:18:12.880Z,4.00
2023-01-15T04:20:58.567Z,4.40
2023-01-15T04:23:43.911Z,3.57
2023-01-15T04:26:29.179Z,5.17
2023-01-15T04:29:14.326Z,3.80
2023-01-15T04:31:59.657Z,2.90
2023-01-15T04:34:44.897Z,3.23
2023-01-15T04:37:30.165Z,3.33
2023-01-15T04:40:35.997Z,2.77
2023-01-15T04:43:39.852Z,5.40
2023-01-15T04:49:13.710Z,5.27
2023-01-15T04:51:59.210Z,3.27
2023-01-15T04:54:44.352Z,3.50
2023-01-15T04:57:29.857Z,2.93
2023-01-15T05:00:16.057Z,3.93
2023-01-15T05:03:01.629Z,4.10
2023-01-15T05:05:46.838Z,2.80
2023-01-15T05:08:34.968Z,2.93
2023-01-15T05:11:21.762Z,3.00
2023-01-15T05:14:07.746Z,4.20
2023-01-15T05:16:53.316Z,2.90
2023-01-15T05:19:38.837Z,2.63
2023-01-15T05:22:24.086Z,2.73
2023-01-15T05:25:09.595Z,2.10
2023-01-15T05:27:55.129Z,3.37
2023-01-15T05:30:40.368Z,2.90
2023-01-15T05:33:25.796Z,4.20
2023-01-15T05:36:14.150Z,3.13
2023-01-15T05:39:02.122Z,4.10
2023-01-15T05:41:50.827Z,3.40
2023-01-15T05:44:36.528Z,3.13
2023-01-15T05:47:21.786Z,4.77
2023-01-15T05:50:07.494Z,3.23
2023-01-15T05:52:53.027Z,3.20
2023-01-15T05:55:38.548Z,5.40
2023-01-15T05:58:24.339Z,3.37
2023-01-15T06:01:11.648Z,4.13
2023-01-15T06:04:01.968Z,2.97
2023-01-15T06:06:51.905Z,2.57
2023-01-15T06:09:37.186Z,3.07
2023-01-15T06:12:22.406Z,3.27
2023-01-15T06:15:08.247Z,3.97
2023-01-15T06:17:53.700Z,3.30
2023-01-15T06:20:42.440Z,4.17
2023-01-15T06:23:28.031Z,4.03
2023-01-15T06:26:17.655Z,4.17
2023-01-15T06:29:02.987Z,2.40
2023-01-15T06:31:49.467Z,3.67
2023-01-15T06:34:36.358Z,4.40
2023-01-15T06:37:21.470Z,2.43
2023-01-15T06:40:07.367Z,2.47
2023-01-15T06:43:11.104Z,2.60
2023-01-15T06:49:44.881Z,3.57
2023-01-15T06:52:30.476Z,4.30
2023-01-15T06:55:15.925Z,2.90
2023-01-15T06:58:03.755Z,3.60
2023-01-15T07:00:55.197Z,3.13
2023-01-15T07:03:41.336Z,2.77
2023-01-15T07:06:26.612Z,2.80
2023-01-15T07:09:12.509Z,2.90
2023-01-15T07:11:58.873Z,1.93
2023-01-15T07:14:44.791Z,3.57
2023-01-15T07:17:30.265Z,2.90
2023-01-15T07:20:15.987Z,3.90
2023-01-15T07:23:01.584Z,2.37
2023-01-15T07:25:46.843Z,2.53
2023-01-15T07:28:32.657Z,1.83
2023-01-15T07:31:17.974Z,2.53
2023-01-15T07:34:03.674Z,2.70
2023-01-15T07:36:49.261Z,2.57
2023-01-15T07:39:34.538Z,3.30
2023-01-15T07:42:38.300Z,3.30
2023-01-15T07:48:45.872Z,4.40
2023-01-15T07:51:31.136Z,4.73
2023-01-15T07:54:16.332Z,3.60
2023-01-15T07:57:02.186Z,4.37
2023-01-15T07:59:47.974Z,3.53
2023-01-15T08:02:33.301Z,5.80
2023-01-15T08:05:18.795Z,2.90
2023-01-15T08:08:04.097Z,3.53
2023-01-15T08:11:08.105Z,3.93
2023-01-15T08:14:11.806Z,3.63
2023-01-15T08:16:57.349Z,3.37
2023-01-15T08:19:42.580Z,5.03
2023-01-15T08:22:27.842Z,5.17
2023-01-15T08:25:15.642Z,5.47
2023-01-15T08:28:03.276Z,3.60
2023-01-15T08:30:48.832Z,10.40
2023-01-15T08:33:34.357Z,5.30
2023-01-15T08:36:19.722Z,3.97
2023-01-15T08:39:05.300Z,5.67
2023-01-15T08:41:50.711Z,5.70
2023-01-15T08:44:35.830Z,4.27
2023-01-15T08:47:21.037Z,6.77
2023-01-15T08:50:08.765Z,5.07
2023-01-15T08:52:54.509Z,5.93
2023-01-15T08:55:39.865Z,8.83
2023-01-15T08:58:29.203Z,4.00
2023-01-15T09:01:16.250Z,10.97
2023-01-15T09:04:02.038Z,8.83
2023-01-15T09:06:49.106Z,7.13
2023-01-15T09:09:34.966Z,8.20
2023-01-15T09:12:20.122Z,5.57
2023-01-15T09:15:06.086Z,10.60
2023-01-15T09:17:51.494Z,5.47
2023-01-15T09:20:36.756Z,6.23
2023-01-15T09:23:22.419Z,11.20
2023-01-15T09:26:08.182Z,5.07
2023-01-15T09:28:54.037Z,8.50
2023-01-15T09:31:39.469Z,6.57
2023-01-15T09:34:24.675Z,6.63
2023-01-15T09:37:10.434Z,6.70
2023-01-15T09:39:56.004Z,4.10
2023-01-15T09:43:02.366Z,6.13
2023-01-15T09:46:00.361Z,4.57
2023-01-15T09:49:14.992Z,3.97
2023-01-15T09:52:43.760Z,3.37
2023-01-15T09:55:33.358Z,4.10
2023-01-15T09:58:24.181Z,4.77
2023-01-15T10:01:17.371Z,4.30
2023-01-15T10:04:40.163Z,5.03
2023-01-15T10:07:38.526Z,7.57
2023-01-15T10:10:34.243Z,4.03
2023-01-15T10:13:31.552Z,3.67
2023-01-15T10:16:23.710Z,5.03
2023-01-15T10:19:10.673Z,6.17
2023-01-15T10:22:19.930Z,3.70
2023-01-15T10:25:14.863Z,4.50
2023-01-15T10:28:11.591Z,4.67
2023-01-15T10:31:06.191Z,5.27
2023-01-15T10:34:06.236Z,3.83
2023-01-15T10:37:00.009Z,5.57
2023-01-15T10:39:52.964Z,5.60
2023-01-15T10:43:14.125Z,5.53
2023-01-15T10:46:01.756Z,2.20
2023-01-15T10:48:57.068Z,1.73
2023-01-15T10:51:50.218Z,3.40
2023-01-15T10:54:40.541Z,5.63
2023-01-15T10:58:08.948Z,5.07
2023-01-15T11:01:01.558Z,3.53
2023-01-15T11:03:47.578Z,2.80
2023-01-15T11:06:33.470Z,1.70
2023-01-15T11:09:31.171Z,4.00
2023-01-15T11:12:28.404Z,3.93
2023-01-15T11:15:35.429Z,3.83
2023-01-15T11:18:48.596Z,2.53
2023-01-15T11:21:40.593Z,3.63
2023-01-15T11:24:26.981Z,3.23
2023-01-15T11:27:19.486Z,4.07
2023-01-15T11:30:07.772Z,4.03
2023-01-15T11:32:58.789Z,3.10
2023-01-15T11:35:58.354Z,3.03
2023-01-15T11:38:46.545Z,6.97
2023-01-15T11:41:53.783Z,4.23
2023-01-15T11:44:57.526Z,10.13
2023-01-15T11:48:12.863Z,7.83
2023-01-15T11:51:08.096Z,8.00
2023-01-15T11:53:58.762Z,5.53
2023-01-15T11:56:46.027Z,10.40
2023-01-15T11:59:32.084Z,6.97
2023-01-15T12:02:49.193Z,7.83
2023-01-15T12:05:36.472Z,14.27
2023-01-15T12:08:31.409Z,13.03
2023-01-15T12:11:38.350Z,13.30
2023-01-15T12:14:41.299Z,13.03
2023-01-15T12:17:42.377Z,13.15
2023-01-15T12:20:47.857Z,13.83
2023-01-15T12:24:27.420Z,13.20
2023-01-15T12:27:31.558Z,15.10
2023-01-15T12:30:28.463Z,18.57
2023-01-15T12:33:37.331Z,12.00
2023-01-15T12:36:38.426Z,15.53
2023-01-15T12:39:33.477Z,13.40
2023-01-15T12:42:41.361Z,9.70
2023-01-15T12:45:32.142Z,9.97
2023-01-15T12:48:29.960Z,16.13
2023-01-15T12:51:24.402Z,11.03
2023-01-15T12:54:18.129Z,12.53
2023-01-15T12:57:15.412Z,11.53
2023-01-15T13:00:30.002Z,12.80
2023-01-15T13:03:30.621Z,10.70
2023-01-15T13:06:18.693Z,11.67
2023-01-15T13:09:20.663Z,13.27
2023-01-15T13:12:14.641Z,10.17
2023-01-15T13:15:02.118Z,9.67
2023-01-15T13:18:12.715Z,12.73
2023-01-15T13:21:02.320Z,10.87
2023-01-15T13:24:14.076Z,14.33
2023-01-15T13:27:44.165Z,10.00
2023-01-15T13:30:47.609Z,8.77
2023-01-15T13:33:44.028Z,9.77
2023-01-15T13:36:40.570Z,10.80
2023-01-15T13:39:32.257Z,12.00
2023-01-15T13:42:37.775Z,11.03
2023-01-15T13:45:31.223Z,10.53
2023-01-15T13:48:20.534Z,10.07
2023-01-15T13:51:17.269Z,12.53
2023-01-15T13:54:03.572Z,12.57
2023-01-15T13:56:50.572Z,11.73
2023-01-15T13:59:44.858Z,10.97
2023-01-15T14:02:34.567Z,9.60
2023-01-15T14:05:23.282Z,12.53
2023-01-15T14:08:16.668Z,10.23
2023-01-15T14:11:03.151Z,10.77
2023-01-15T14:14:26.146Z,13.43
2023-01-15T14:17:33.365Z,16.43
2023-01-15T14:20:48.933Z,8.77
2023-01-15T14:23:59.273Z,10.33
2023-01-15T14:27:05.257Z,12.53
2023-01-15T14:30:12.723Z,13.83
2023-01-15T14:33:24.889Z,10.47
2023-01-15T14:36:20.684Z,11.73
2023-01-15T14:39:24.363Z,9.77
2023-01-15T14:42:40.641Z,9.67
2023-01-15T14:45:46.606Z,9.77
2023-01-15T14:48:32.868Z,9.37
2023-01-15T14:51:28.656Z,7.77
2023-01-15T14:54:18.696Z,7.43
2023-01-15T14:57:08.451Z,11.23
2023-01-15T15:00:04.229Z,8.20
2023-01-15T15:02:51.013Z,5.77
2023-01-15T15:05:36.734Z,8.33
2023-01-15T15:08:33.062Z,7.33
2023-01-15T15:11:46.860Z,7.93
2023-01-15T15:14:38.547Z,8.73
2023-01-15T15:17:33.212Z,9.57
2023-01-15T15:20:29.993Z,9.43
2023-01-15T15:23:48.251Z,9.53
2023-01-15T15:26:35.245Z,9.97
2023-01-15T15:29:22.133Z,11.93
2023-01-15T15:32:22.112Z,13.07
2023-01-15T15:35:30.921Z,6.80
2023-01-15T15:38:18.933Z,8.57
2023-01-15T15:41:12.661Z,9.20
2023-01-15T15:44:17.887Z,7.67
2023-01-15T15:47:37.832Z,5.87
2023-01-15T15:50:26.985Z,8.47
2023-01-15T15:53:18.889Z,7.37
2023-01-15T15:56:04.460Z,8.87
2023-01-15T15:58:50.265Z,10.33
2023-01-15T16:01:39.584Z,9.27
2023-01-15T16:04:25.420Z,7.10
2023-01-15T16:07:20.990Z,7.23
2023-01-15T16:10:13.069Z,8.43
2023-01-15T16:13:05.046Z,7.07
2023-01-15T16:15:56.185Z,8.63
2023-01-15T16:18:49.786Z,7.73
2023-01-15T16:21:37.486Z,5.27
2023-01-15T16:24:26.680Z,6.77
2023-01-15T16:27:22.069Z,6.90
2023-01-15T16:30:14.795Z,7.33
2023-01-15T16:33:06.306Z,6.70
2023-01-15T16:36:04.901Z,6.40
2023-01-15T16:38:51.708Z,11.43
2023-01-15T16:41:42.536Z,8.13
2023-01-15T16:44:30.771Z,6.37
2023-01-15T16:47:24.600Z,7.73
2023-01-15T16:50:22.102Z,5.13
2023-01-15T16:53:33.295Z,8.00
2023-01-15T16:56:40.499Z,7.77
2023-01-15T16:59:25.844Z,7.77
2023-01-15T17:02:15.593Z,5.50
2023-01-15T17:05:01.667Z,8.33
2023-01-15T17:07:50.250Z,6.83
2023-01-15T17:10:35.612Z,6.83
2023-01-15T17:13:22.036Z,4.77
2023-01-15T17:16:13.708Z,4.03
2023-01-15T17:18:59.444Z,4.77
2023-01-15T17:21:47.553Z,7.60
2023-01-15T17:24:34.279Z,6.60
2023-01-15T17:27:21.171Z,6.60
2023-01-15T17:30:06.812Z,5.97
2023-01-15T17:32:52.066Z,5.70
2023-01-15T17:35:41.217Z,6.67
2023-01-15T17:38:27.317Z,4.27
2023-01-15T17:41:17.750Z,5.20
2023-01-15T17:44:04.133Z,7.00
2023-01-15T17:46:49.589Z,6.73
2023-01-15T17:49:35.272Z,5.30
2023-01-15T17:52:21.756Z,5.63
2023-01-15T17:55:26.275Z,5.33
2023-01-15T17:58:34.485Z,5.80
2023-01-15T18:01:40.953Z,7.37
2023-01-15T18:04:53.444Z,6.33
2023-01-15T18:07:42.551Z,5.07
2023-01-15T18:10:28.162Z,4.23
2023-01-15T18:13:13.535Z,6.23
2023-01-15T18:15:58.844Z,4.07
2023-01-15T18:18:44.527Z,6.17
2023-01-15T18:21:30.533Z,4.23
2023-01-15T18:24:17.267Z,5.93
2023-01-15T18:27:03.216Z,4.63
2023-01-15T18:29:49.150Z,5.70
2023-01-15T18:32:34.760Z,5.33
2023-01-15T18:35:20.684Z,4.20
2023-01-15T18:38:06.976Z,4.43
2023-01-15T18:40:52.615Z,7.97
2023-01-15T18:43:57.732Z,12.57
2023-01-15T18:46:43.836Z,8.47
2023-01-15T18:49:30.613Z,11.33
2023-01-15T18:52:35.094Z,7.97
2023-01-15T18:55:28.685Z,10.33
2023-01-15T18:58:14.627Z,9.70
2023-01-15T19:01:07.298Z,8.67
2023-01-15T19:03:53.422Z,8.48
2023-01-15T19:06:40.620Z,9.83
2023-01-15T19:09:27.036Z,9.47
2023-01-15T19:12:13.794Z,10.63
2023-01-15T19:15:17.851Z,11.90
2023-01-15T19:18:22.934Z,11.27
2023-01-15T19:21:09.031Z,11.33
2023-01-15T19:23:56.206Z,8.67
2023-01-15T19:26:42.138Z,7.07
2023-01-15T19:29:28.209Z,8.40
2023-01-15T19:32:14.685Z,7.93
2023-01-15T19:35:00.236Z,7.63
2023-01-15T19:37:46.682Z,10.20
2023-01-15T19:40:36.576Z,6.77
2023-01-15T19:43:40.831Z,8.83
2023-01-15T19:46:47.044Z,9.40
2023-01-15T19:49:55.245Z,7.00
2023-01-15T19:52:44.527Z,6.90
2023-01-15T19:55:32.405Z,9.07
2023-01-15T19:58:19.115Z,7.97
2023-01-15T20:01:05.728Z,5.77
2023-01-15T20:03:51.631Z,7.13
2023-01-15T20:06:36.889Z,5.30
2023-01-15T20:09:23.287Z,6.07
2023-01-15T20:12:29.728Z,7.53
2023-01-15T20:15:15.487Z,7.10
2023-01-15T20:18:01.762Z,5.27
2023-01-15T20:20:47.560Z,8.10
2023-01-15T20:23:34.914Z,5.40
2023-01-15T20:26:24.446Z,7.13
2023-01-15T20:29:09.616Z,7.33
2023-01-15T20:31:55.099Z,4.90
2023-01-15T20:34:40.892Z,5.47
2023-01-15T20:37:26.295Z,5.40
2023-01-15T20:40:12.376Z,6.03
2023-01-15T20:43:16.666Z,6.33
2023-01-15T20:46:15.190Z,5.37
2023-01-15T20:49:19.035Z,6.50
2023-01-15T20:52:04.500Z,6.47
2023-01-15T20:54:50.561Z,3.47
2023-01-15T20:57:38.347Z,6.93
2023-01-15T21:00:24.146Z,8.23
2023-01-15T21:03:11.365Z,5.10
2023-01-15T21:05:57.927Z,6.60
2023-01-15T21:08:45.971Z,6.70
2023-01-15T21:11:31.403Z,3.90
2023-01-15T21:14:16.572Z,6.27
2023-01-15T21:17:01.993Z,5.10
2023-01-15T21:19:47.426Z,4.57
2023-01-15T21:22:32.956Z,3.37
2023-01-15T21:25:18.256Z,6.00
2023-01-15T21:28:03.722Z,6.40
2023-01-15T21:30:49.095Z,4.13
2023-01-15T21:33:34.541Z,5.37
2023-01-15T21:36:20.281Z,5.70
2023-01-15T21:39:05.625Z,5.50
2023-01-15T21:42:14.072Z,7.03
2023-01-15T21:44:59.767Z,3.73
2023-01-15T21:47:45.316Z,4.53
2023-01-15T21:50:30.646Z,3.27
2023-01-15T21:53:15.804Z,5.47
2023-01-15T21:56:00.895Z,4.23
2023-01-15T21:58:46.305Z,5.20
2023-01-15T22:01:31.641Z,4.30
2023-01-15T22:04:17.032Z,4.77
2023-01-15T22:07:02.638Z,5.53
2023-01-15T22:09:48.093Z,6.57
2023-01-15T22:12:38.187Z,4.63
2023-01-15T22:15:24.337Z,3.47
2023-01-15T22:18:09.717Z,5.70
2023-01-15T22:21:03.889Z,3.80
2023-01-15T22:23:49.407Z,3.80
2023-01-15T22:26:35.881Z,3.97
2023-01-15T22:29:26.510Z,4.47
2023-01-15T22:32:13.477Z,5.47
2023-01-15T22:34:59.096Z,4.17
2023-01-15T22:37:44.184Z,3.87
2023-01-15T22:40:30.189Z,4.60
2023-01-15T22:43:15.706Z,3.73
2023-01-15T22:46:12.414Z,4.17
2023-01-15T22:48:57.625Z,4.90
2023-01-15T22:51:43.901Z,5.10
2023-01-15T22:54:29.158Z,3.87
2023-01-15T22:57:14.419Z,3.33
2023-01-15T23:00:00.247Z,3.93
2023-01-15T23:02:54.444Z,5.07
2023-01-15T23:05:40.190Z,2.70
2023-01-15T23:08:26.982Z,3.47
2023-01-15T23:11:14.896Z,3.77
2023-01-15T23:14:00.652Z,3.53
2023-01-15T23:16:46.159Z,3.17
2023-01-15T23:19:31.503Z,4.03
2023-01-15T23:22:16.733Z,3.60
2023-01-15T23:25:02.184Z,4.33
2023-01-15T23:27:47.448Z,4.03
2023-01-15T23:30:32.931Z,3.37
2023-01-15T23:33:18.762Z,3.60
2023-01-15T23:36:06.957Z,3.30
2023-01-15T23:38:52.168Z,3.90
2023-01-15T23:41:56.064Z,4.33
2023-01-15T23:47:45.244Z,2.95
2023-01-15T23:50:30.562Z,3.67
2023-01-15T23:53:15.638Z,3.73
2023-01-15T23:56:02.600Z,3.17
2023-01-15T23:58:47.881Z,3.43
